Time;durP1;ratioP1;P1;durP2;ratioP2;P2;SDS_P1;SDS_P2;PMS_P1;PMS_P2;Temp;Humidity;BMP_temperature;BMP_pressure;BME280_temperature;BME280_humidity;BME280_pressure;Samples;Min_cycle;Max_cycle;Signal;HPM_P1;HPM_P2
2022/06/29 00:00:16;;;;;;;6.93;3.07;;;16.50;99.90;;;;;;4990285;28;20057;-41
2022/06/29 00:02:43;;;;;;;4.60;2.95;;;16.50;99.90;;;;;;5008426;28;20041;-41
2022/06/29 00:05:11;;;;;;;4.72;2.90;;;16.50;99.90;;;;;;5009653;28;20061;-42
2022/06/29 00:07:36;;;;;;;4.40;3.05;;;16.40;99.90;;;;;;4994560;28;20045;-41
2022/06/29 00:10:03;;;;;;;5.30;3.00;;;16.40;99.90;;;;;;5010747;28;20033;-41
2022/06/29 00:12:29;;;;;;;6.00;3.00;;;16.40;99.90;;;;;;5009139;28;20445;-42
2022/06/29 00:14:56;;;;;;;5.28;2.72;;;16.40;99.90;;;;;;5010843;28;20042;-41
2022/06/29 00:17:22;;;;;;;4.65;3.28;;;16.30;99.90;;;;;;4974331;28;20137;-41
2022/06/29 00:19:48;;;;;;;4.90;3.20;;;16.30;99.90;;;;;;4991203;28;20445;-41
2022/06/29 00:22:15;;;;;;;7.03;3.38;;;16.30;99.90;;;;;;4988907;28;20113;-41
2022/06/29 00:24:41;;;;;;;5.43;3.33;;;16.30;99.90;;;;;;4991152;28;20532;-41
2022/06/29 00:27:08;;;;;;;5.45;2.88;;;16.30;99.90;;;;;;4975061;28;20050;-41
2022/06/29 00:29:34;;;;;;;6.80;2.83;;;16.20;99.90;;;;;;4991231;28;20214;-42
2022/06/29 00:31:59;;;;;;;5.22;2.72;;;16.20;99.90;;;;;;4991393;28;20564;-42
2022/06/29 00:34:25;;;;;;;6.95;2.83;;;16.20;99.90;;;;;;4990095;28;20077;-41
2022/06/29 00:36:51;;;;;;;5.80;2.80;;;16.20;99.90;;;;;;4975967;28;20038;-41
2022/06/29 00:39:17;;;;;;;4.22;2.50;;;16.20;99.90;;;;;;4990139;28;20130;-41
2022/06/29 00:41:45;;;;;;;6.22;3.00;;;16.10;99.90;;;;;;4995485;28;20100;-41
2022/06/29 00:44:15;;;;;;;7.57;3.53;;;16.10;99.90;;;;;;4995814;28;20046;-41
2022/06/29 00:46:56;;;;;;;3.53;2.93;;;16.10;99.90;;;;;;4995763;28;20124;-41
2022/06/29 00:49:23;;;;;;;4.63;3.20;;;16.10;99.90;;;;;;4991957;28;20096;-43
2022/06/29 00:51:53;;;;;;;7.25;3.30;;;16.10;99.90;;;;;;4990401;28;20057;-43
2022/06/29 00:54:23;;;;;;;7.65;3.45;;;16.00;99.90;;;;;;4989767;28;20488;-42
2022/06/29 00:56:49;;;;;;;5.85;3.03;;;16.00;99.90;;;;;;4975382;28;20069;-41
2022/06/29 00:59:20;;;;;;;7.60;3.55;;;16.00;99.90;;;;;;4989656;28;20047;-41
2022/06/29 01:01:46;;;;;;;4.85;3.38;;;16.00;99.90;;;;;;4990354;28;20050;-41
2022/06/29 01:04:12;;;;;;;6.47;3.28;;;15.90;99.90;;;;;;4990003;28;20520;-41
2022/06/29 01:06:39;;;;;;;4.57;2.92;;;15.90;99.90;;;;;;4976533;28;20159;-41
2022/06/29 01:09:05;;;;;;;6.10;3.53;;;15.80;99.90;;;;;;4988044;28;20050;-41
2022/06/29 01:11:31;;;;;;;5.13;3.55;;;15.70;99.90;;;;;;4990364;28;20531;-41
2022/06/29 01:13:58;;;;;;;4.75;3.20;;;15.70;99.90;;;;;;4989248;28;20049;-42
2022/06/29 01:16:23;;;;;;;7.20;3.55;;;15.70;99.90;;;;;;4984634;28;20057;-41
2022/06/29 01:18:49;;;;;;;5.90;3.40;;;15.60;99.90;;;;;;4986532;28;20046;-41
2022/06/29 01:21:18;;;;;;;5.55;3.75;;;15.60;99.90;;;;;;4990071;28;20129;-41
2022/06/29 01:23:44;;;;;;;6.90;3.75;;;15.50;99.90;;;;;;4989496;28;20042;-41
2022/06/29 01:26:11;;;;;;;6.60;3.97;;;15.50;99.90;;;;;;4981940;28;20046;-41
2022/06/29 01:28:43;;;;;;;6.30;3.60;;;15.50;99.90;;;;;;4981114;28;20054;-41
2022/06/29 01:31:13;;;;;;;5.20;3.25;;;15.40;99.90;;;;;;4990110;28;20054;-41
2022/06/29 01:33:38;;;;;;;4.30;3.22;;;15.40;99.90;;;;;;4989237;28;20061;-41
2022/06/29 01:36:04;;;;;;;6.20;3.30;;;15.30;99.90;;;;;;4990244;28;20047;-41
2022/06/29 01:38:30;;;;;;;4.13;3.72;;;15.30;99.90;;;;;;4973936;28;20061;-41
2022/06/29 01:40:56;;;;;;;4.30;3.90;;;15.30;99.90;;;;;;4989857;28;20486;-41
2022/06/29 01:43:21;;;;;;;7.15;4.05;;;15.30;99.90;;;;;;4999612;28;20046;-41
2022/06/29 01:45:47;;;;;;;4.75;4.22;;;15.30;99.90;;;;;;4990300;28;20054;-42
2022/06/29 01:48:13;;;;;;;7.22;3.90;;;15.30;99.90;;;;;;4973817;28;20054;-42
2022/06/29 01:50:38;;;;;;;4.82;4.00;;;15.30;99.90;;;;;;4990179;28;20285;-41
2022/06/29 01:53:04;;;;;;;6.43;4.00;;;15.30;99.90;;;;;;4989333;28;20054;-41
2022/06/29 01:55:30;;;;;;;8.82;4.60;;;15.30;99.90;;;;;;4989467;28;20042;-41
2022/06/29 01:57:55;;;;;;;5.07;4.55;;;15.30;99.90;;;;;;4973536;28;20066;-41
2022/06/29 02:00:21;;;;;;;5.93;4.03;;;15.30;99.90;;;;;;4990223;28;20046;-41
2022/06/29 02:02:47;;;;;;;7.32;4.28;;;15.20;99.90;;;;;;4987814;28;20042;-41
2022/06/29 02:05:14;;;;;;;4.88;4.22;;;15.30;99.90;;;;;;4989591;28;20043;-41
2022/06/29 02:07:40;;;;;;;8.23;4.75;;;15.30;99.90;;;;;;4973465;28;20042;-41
2022/06/29 02:10:07;;;;;;;7.15;4.35;;;15.30;99.90;;;;;;4989828;28;20065;-41
2022/06/29 02:12:33;;;;;;;4.63;4.18;;;15.30;99.90;;;;;;4989241;28;20073;-41
2022/06/29 02:14:58;;;;;;;6.07;4.10;;;15.30;99.90;;;;;;4998524;28;20565;-41
2022/06/29 02:17:24;;;;;;;5.95;4.55;;;15.30;99.90;;;;;;4977651;28;20426;-42
2022/06/29 02:19:50;;;;;;;7.85;4.47;;;15.30;99.90;;;;;;4993237;28;20051;-41
2022/06/29 02:22:15;;;;;;;4.93;4.32;;;15.30;99.90;;;;;;4989673;28;20048;-42
2022/06/29 02:24:41;;;;;;;7.00;4.57;;;15.30;99.90;;;;;;5000451;28;20533;-41
2022/06/29 02:27:07;;;;;;;6.90;4.10;;;15.30;99.90;;;;;;4976796;28;20279;-41
2022/06/29 02:29:32;;;;;;;7.75;4.70;;;15.30;99.90;;;;;;4992208;28;20046;-41
2022/06/29 02:34:46;;;;;;;5.15;4.25;;;15.30;99.90;;;;;;4992179;28;20069;-42
2022/06/29 02:37:15;;;;;;;6.88;4.60;;;15.30;99.90;;;;;;4968475;28;20038;-41
2022/06/29 02:39:42;;;;;;;7.93;4.88;;;15.30;99.90;;;;;;5005289;28;20058;-42
2022/06/29 02:42:10;;;;;;;7.32;4.53;;;15.40;99.90;;;;;;4992147;28;20046;-42
2022/06/29 02:44:36;;;;;;;8.00;4.40;;;15.40;99.90;;;;;;4990930;28;20053;-41
2022/06/29 02:47:03;;;;;;;6.90;4.80;;;15.40;99.90;;;;;;4977801;28;20038;-41
2022/06/29 02:49:28;;;;;;;7.15;4.88;;;15.40;99.90;;;;;;4990680;28;20061;-41
2022/06/29 02:51:54;;;;;;;7.78;5.10;;;15.40;99.90;;;;;;4991769;28;20058;-42
2022/06/29 02:54:19;;;;;;;9.23;4.50;;;15.40;99.90;;;;;;4992181;28;20140;-41
2022/06/29 02:56:45;;;;;;;8.32;4.75;;;15.40;99.90;;;;;;4976882;28;20081;-41
2022/06/29 02:59:11;;;;;;;7.47;4.80;;;15.40;99.90;;;;;;4990408;28;20144;-42
2022/06/29 03:01:36;;;;;;;5.32;4.65;;;15.40;99.90;;;;;;4983916;28;20105;-42
2022/06/29 03:04:02;;;;;;;7.28;4.82;;;15.40;99.90;;;;;;4986426;28;20046;-42
2022/06/29 03:06:28;;;;;;;9.07;4.80;;;15.40;99.90;;;;;;4980226;28;20046;-42
2022/06/29 03:08:53;;;;;;;6.75;4.95;;;15.40;99.90;;;;;;4987277;28;20399;-42
2022/06/29 03:11:19;;;;;;;8.23;5.10;;;15.40;99.90;;;;;;4991513;28;20046;-42
2022/06/29 03:13:45;;;;;;;7.50;4.60;;;15.40;99.90;;;;;;4980231;28;20042;-42
2022/06/29 03:16:11;;;;;;;8.05;4.65;;;15.40;99.90;;;;;;4994011;28;20054;-42
2022/06/29 03:18:36;;;;;;;7.63;4.80;;;15.40;99.90;;;;;;4983106;28;20498;-42
2022/06/29 03:21:02;;;;;;;8.20;4.72;;;15.40;99.90;;;;;;4991441;28;20125;-42
2022/06/29 03:23:28;;;;;;;5.18;4.57;;;15.40;99.90;;;;;;4990356;28;20058;-41
2022/06/29 03:25:53;;;;;;;10.13;4.63;;;15.40;99.90;;;;;;4990418;28;20488;-42
2022/06/29 03:28:19;;;;;;;9.32;4.70;;;15.40;99.90;;;;;;4972969;28;20668;-42
2022/06/29 03:30:44;;;;;;;9.40;4.68;;;15.40;99.90;;;;;;4991306;28;20046;-42
2022/06/29 03:33:10;;;;;;;5.72;4.30;;;15.40;99.90;;;;;;4990423;28;20410;-42
2022/06/29 03:35:36;;;;;;;6.43;4.95;;;15.40;99.90;;;;;;4991105;28;20168;-42
2022/06/29 03:38:02;;;;;;;7.10;4.72;;;15.40;99.90;;;;;;4974439;28;20119;-42
2022/06/29 03:40:27;;;;;;;7.75;5.00;;;15.50;99.90;;;;;;4990948;28;20084;-41
2022/06/29 03:42:54;;;;;;;7.00;4.80;;;15.40;99.90;;;;;;5000341;28;20046;-41
2022/06/29 03:45:20;;;;;;;5.28;4.68;;;15.40;99.90;;;;;;4991027;28;20077;-42
2022/06/29 03:47:45;;;;;;;7.93;4.97;;;15.50;99.90;;;;;;4974769;28;20084;-41
2022/06/29 03:50:11;;;;;;;5.95;4.70;;;15.50;99.90;;;;;;4991106;28;20109;-42
2022/06/29 03:52:37;;;;;;;6.88;4.95;;;15.50;99.90;;;;;;4989735;28;20054;-42
2022/06/29 03:55:03;;;;;;;7.15;4.72;;;15.50;99.90;;;;;;4998397;28;20163;-42
2022/06/29 03:57:29;;;;;;;8.60;5.40;;;15.50;99.90;;;;;;4992348;28;20497;-42
2022/06/29 03:59:54;;;;;;;9.95;5.07;;;15.50;99.90;;;;;;4994704;28;20049;-42
2022/06/29 04:02:20;;;;;;;8.30;4.70;;;15.50;99.90;;;;;;4989859;28;20073;-41
2022/06/29 04:04:46;;;;;;;8.43;5.50;;;15.50;99.90;;;;;;4990718;28;20043;-41
2022/06/29 04:07:11;;;;;;;6.70;5.30;;;15.50;99.90;;;;;;4939094;28;1075871;-41
2022/06/29 04:09:37;;;;;;;8.15;5.50;;;15.50;99.90;;;;;;4999755;28;20405;-42
2022/06/29 04:12:03;;;;;;;6.70;4.82;;;15.50;99.90;;;;;;5008641;28;20053;-44
2022/06/29 04:14:29;;;;;;;5.40;4.90;;;15.50;99.90;;;;;;5010823;28;20076;-41
2022/06/29 04:16:57;;;;;;;6.97;4.97;;;15.50;99.90;;;;;;4980491;28;20042;-42
2022/06/29 04:19:23;;;;;;;7.30;5.32;;;15.50;99.90;;;;;;4990401;28;20057;-42
2022/06/29 04:21:49;;;;;;;8.38;5.43;;;15.50;99.90;;;;;;4991202;28;20092;-42
2022/06/29 04:24:15;;;;;;;10.23;5.82;;;15.50;99.90;;;;;;4986567;28;20051;-41
2022/06/29 04:26:42;;;;;;;7.43;5.97;;;15.50;99.90;;;;;;4962707;28;20046;-41
2022/06/29 04:29:07;;;;;;;9.20;6.20;;;15.50;99.90;;;;;;4986796;28;20050;-42
2022/06/29 04:31:33;;;;;;;8.43;6.03;;;15.50;99.90;;;;;;4986990;28;20061;-41
2022/06/29 04:34:00;;;;;;;8.00;5.95;;;15.50;99.90;;;;;;4989057;28;20428;-41
2022/06/29 04:36:26;;;;;;;9.32;5.93;;;15.50;99.90;;;;;;4975189;28;20610;-41
2022/06/29 04:38:53;;;;;;;8.75;5.50;;;15.60;99.90;;;;;;4987464;28;20105;-41
2022/06/29 04:41:19;;;;;;;6.43;5.82;;;15.60;99.90;;;;;;4987187;28;20041;-42
2022/06/29 04:43:46;;;;;;;9.00;5.68;;;15.60;99.90;;;;;;4989075;28;20054;-42
2022/06/29 04:46:20;;;;;;;11.18;5.45;;;15.60;99.90;;;;;;4970065;28;20133;-41
2022/06/29 04:48:58;;;;;;;7.75;6.30;;;15.70;99.90;;;;;;4987030;28;20046;-41
2022/06/29 04:51:26;;;;;;;6.68;5.95;;;15.70;99.90;;;;;;4981952;28;20049;-41
2022/06/29 04:53:56;;;;;;;6.70;5.80;;;15.70;99.90;;;;;;4989394;28;20078;-42
2022/06/29 04:56:27;;;;;;;8.77;5.78;;;15.70;99.90;;;;;;4976632;28;20046;-42
2022/06/29 04:58:53;;;;;;;9.35;5.72;;;15.80;99.90;;;;;;4986031;28;20055;-42
2022/06/29 05:01:23;;;;;;;7.32;6.00;;;15.80;99.90;;;;;;4986667;28;20065;-42
2022/06/29 05:03:49;;;;;;;8.75;6.10;;;15.90;99.90;;;;;;4983521;28;20058;-42
2022/06/29 05:06:15;;;;;;;14.10;6.03;;;15.90;99.90;;;;;;4976057;28;20042;-42
2022/06/29 05:08:41;;;;;;;6.53;5.90;;;16.00;99.90;;;;;;4953589;28;20042;-41
2022/06/29 05:11:06;;;;;;;8.10;5.95;;;16.00;99.90;;;;;;4975878;28;20051;-43
2022/06/29 05:13:32;;;;;;;6.43;5.75;;;16.10;99.90;;;;;;4980375;28;20042;-43
2022/06/29 05:15:58;;;;;;;7.63;5.68;;;16.10;99.90;;;;;;4975254;28;20062;-43
2022/06/29 05:18:24;;;;;;;6.38;5.50;;;16.20;99.90;;;;;;4960092;28;20189;-43
2022/06/29 05:20:50;;;;;;;6.20;5.60;;;16.20;99.90;;;;;;4982471;28;20030;-43
2022/06/29 05:23:16;;;;;;;5.82;5.25;;;16.30;99.90;;;;;;4986678;28;20134;-42
2022/06/29 05:25:42;;;;;;;8.70;5.75;;;16.30;99.90;;;;;;4976470;28;20031;-43
2022/06/29 05:28:08;;;;;;;5.68;5.13;;;16.40;99.90;;;;;;4955068;28;20122;-43
2022/06/29 05:30:34;;;;;;;7.18;5.28;;;16.40;99.90;;;;;;4968933;28;20042;-42
2022/06/29 05:33:00;;;;;;;6.28;5.65;;;16.50;99.90;;;;;;4971799;28;20043;-44
2022/06/29 05:35:29;;;;;;;6.28;5.07;;;16.50;99.90;;;;;;4972480;28;20926;-42
2022/06/29 05:37:55;;;;;;;8.23;5.65;;;16.60;99.90;;;;;;4969404;28;20053;-42
2022/06/29 05:40:21;;;;;;;6.35;5.72;;;16.60;99.90;;;;;;4971469;28;20046;-42
2022/06/29 05:42:46;;;;;;;6.07;5.20;;;16.70;99.90;;;;;;4952291;28;20063;-42
2022/06/29 05:45:12;;;;;;;7.28;5.75;;;16.80;99.90;;;;;;4971491;28;20050;-42
2022/06/29 05:47:37;;;;;;;8.50;5.38;;;16.80;99.90;;;;;;4956269;28;20137;-42
2022/06/29 05:50:03;;;;;;;7.18;5.40;;;16.90;99.90;;;;;;4974634;28;20050;-43
2022/06/29 05:52:29;;;;;;;6.32;5.70;;;17.00;99.90;;;;;;4970309;28;20129;-43
2022/06/29 05:54:57;;;;;;;6.75;5.50;;;17.00;99.90;;;;;;4971984;28;20462;-42
2022/06/29 05:57:23;;;;;;;8.60;5.57;;;17.10;99.90;;;;;;4956109;28;20556;-43
2022/06/29 05:59:48;;;;;;;5.88;5.32;;;17.20;99.90;;;;;;4974226;28;20059;-42
2022/06/29 06:02:14;;;;;;;7.10;5.13;;;17.30;99.90;;;;;;4977019;28;20078;-43
2022/06/29 06:04:40;;;;;;;9.95;4.82;;;17.50;99.90;;;;;;4977561;28;20401;-43
2022/06/29 06:07:06;;;;;;;5.40;4.90;;;17.60;99.90;;;;;;4975117;28;20537;-42
2022/06/29 06:09:32;;;;;;;7.13;4.63;;;17.70;99.90;;;;;;4992693;28;20046;-42
2022/06/29 06:11:58;;;;;;;7.05;3.35;;;17.90;99.90;;;;;;4990006;28;20046;-42
2022/06/29 06:14:24;;;;;;;5.55;3.78;;;18.00;99.90;;;;;;4986703;28;20057;-42
2022/06/29 06:16:50;;;;;;;7.82;3.85;;;18.20;99.90;;;;;;4973525;28;20597;-42
2022/06/29 06:19:16;;;;;;;8.70;3.88;;;18.30;99.90;;;;;;4992521;28;20209;-42
2022/06/29 06:21:41;;;;;;;6.53;3.67;;;18.50;99.90;;;;;;4984322;28;20403;-42
2022/06/29 06:24:07;;;;;;;6.05;3.30;;;18.60;99.90;;;;;;4981883;28;20438;-42
2022/06/29 06:26:33;;;;;;;7.45;3.50;;;18.80;99.90;;;;;;4975539;28;20090;-42
2022/06/29 06:28:59;;;;;;;7.07;3.63;;;18.90;99.90;;;;;;4996622;28;20104;-42
2022/06/29 06:31:25;;;;;;;7.55;2.90;;;19.10;99.90;;;;;;5002341;28;20364;-42
2022/06/29 06:33:51;;;;;;;4.80;2.95;;;19.20;99.90;;;;;;4988906;28;20043;-42
2022/06/29 06:36:17;;;;;;;5.80;3.10;;;19.30;99.90;;;;;;4982065;28;20045;-43
2022/06/29 06:38:43;;;;;;;4.07;2.80;;;19.40;99.90;;;;;;4993114;28;20050;-42
2022/06/29 06:41:21;;;;;;;6.18;3.00;;;19.60;99.90;;;;;;4999591;28;20133;-42
2022/06/29 06:44:05;;;;;;;5.47;2.45;;;19.70;99.90;;;;;;4999024;28;20421;-42
2022/06/29 06:46:33;;;;;;;5.97;2.28;;;19.80;99.90;;;;;;4988678;28;20038;-43
2022/06/29 06:48:59;;;;;;;3.92;1.92;;;19.90;99.90;;;;;;4998794;28;20042;-42
2022/06/29 06:51:25;;;;;;;3.58;1.98;;;20.00;99.90;;;;;;5000930;28;20045;-42
2022/06/29 06:53:51;;;;;;;2.42;2.00;;;20.10;99.90;;;;;;5000543;28;20200;-42
2022/06/29 06:56:18;;;;;;;2.20;2.00;;;20.20;99.90;;;;;;4995931;28;20050;-43
2022/06/29 06:58:44;;;;;;;5.85;2.10;;;20.30;99.90;;;;;;5006630;28;20060;-43
2022/06/29 07:01:11;;;;;;;5.03;1.95;;;20.30;99.90;;;;;;4998011;28;20046;-43
2022/06/29 07:03:37;;;;;;;3.55;2.10;;;20.40;99.90;;;;;;5003720;28;20621;-43
2022/06/29 07:06:07;;;;;;;2.55;1.67;;;20.40;99.90;;;;;;5002946;28;20046;-43
2022/06/29 07:08:35;;;;;;;2.20;2.00;;;20.60;99.90;;;;;;4985200;28;20045;-42
2022/06/29 07:11:01;;;;;;;5.07;2.10;;;20.60;99.90;;;;;;4998128;28;20950;-42
2022/06/29 07:13:28;;;;;;;6.93;2.17;;;20.60;99.90;;;;;;5001506;28;20054;-43
2022/06/29 07:15:54;;;;;;;4.80;1.85;;;20.70;99.90;;;;;;4997740;28;20129;-43
2022/06/29 07:18:20;;;;;;;3.15;1.73;;;20.80;99.90;;;;;;4974784;28;20133;-43
2022/06/29 07:20:45;;;;;;;2.72;1.73;;;20.80;99.90;;;;;;4991065;28;20062;-43
2022/06/29 07:23:11;;;;;;;4.78;2.08;;;20.90;99.90;;;;;;4991192;28;20528;-43
2022/06/29 07:25:37;;;;;;;8.48;2.03;;;21.00;99.90;;;;;;4980788;28;20041;-43
2022/06/29 07:28:03;;;;;;;4.65;1.63;;;21.00;99.90;;;;;;4979980;28;20490;-43
2022/06/29 07:30:29;;;;;;;4.15;1.60;;;21.10;99.90;;;;;;4966543;28;20050;-43
2022/06/29 07:32:54;;;;;;;2.65;1.52;;;21.20;99.90;;;;;;4991511;28;20066;-42
2022/06/29 07:35:20;;;;;;;3.28;1.70;;;21.30;99.90;;;;;;4992915;28;20134;-42
2022/06/29 07:37:46;;;;;;;5.57;1.50;;;21.30;99.90;;;;;;4973767;28;20054;-42
2022/06/29 07:40:12;;;;;;;4.18;1.40;;;21.40;99.90;;;;;;4990701;28;20043;-42
2022/06/29 07:42:38;;;;;;;3.13;1.20;;;21.50;99.90;;;;;;4992652;28;20048;-43
2022/06/29 07:45:05;;;;;;;3.58;1.33;;;21.50;99.90;;;;;;4991189;28;20418;-43
2022/06/29 07:47:32;;;;;;;4.30;1.55;;;21.60;99.90;;;;;;4974372;28;20117;-43
2022/06/29 07:49:58;;;;;;;2.85;1.27;;;21.60;99.90;;;;;;4990173;28;20397;-43
2022/06/29 07:52:24;;;;;;;3.03;1.20;;;21.70;99.90;;;;;;4990031;28;20077;-42
2022/06/29 07:54:49;;;;;;;5.32;1.40;;;21.70;99.90;;;;;;4990771;28;20053;-43
2022/06/29 07:57:15;;;;;;;2.05;1.27;;;21.80;99.90;;;;;;4974541;28;20042;-42
2022/06/29 07:59:41;;;;;;;3.53;1.40;;;21.80;99.90;;;;;;4989507;28;20089;-42
2022/06/29 08:02:06;;;;;;;1.67;1.10;;;21.90;99.90;;;;;;4988979;28;20142;-43
2022/06/29 08:04:32;;;;;;;3.05;1.17;;;21.90;99.90;;;;;;4989677;28;20221;-42
2022/06/29 08:06:58;;;;;;;2.90;1.10;;;21.90;99.90;;;;;;4976263;28;20062;-42
2022/06/29 08:09:23;;;;;;;2.78;1.20;;;22.00;99.90;;;;;;4989057;28;20062;-42
2022/06/29 08:11:51;;;;;;;2.20;1.50;;;21.90;99.90;;;;;;4991562;28;20425;-42
2022/06/29 08:14:17;;;;;;;4.03;1.33;;;22.00;99.90;;;;;;4995602;28;20084;-42
2022/06/29 08:16:43;;;;;;;3.03;1.30;;;22.00;99.90;;;;;;4980111;28;20101;-42
2022/06/29 08:19:09;;;;;;;2.25;1.25;;;22.00;99.90;;;;;;4997527;28;20480;-42
2022/06/29 08:21:35;;;;;;;3.83;1.58;;;22.00;99.90;;;;;;4993999;28;20046;-42
2022/06/29 08:24:00;;;;;;;2.92;1.38;;;22.10;99.90;;;;;;4996131;28;20042;-42
2022/06/29 08:26:26;;;;;;;5.80;1.63;;;22.10;99.90;;;;;;4985038;28;20687;-42
2022/06/29 08:28:52;;;;;;;4.63;1.55;;;22.10;99.90;;;;;;4960185;28;20568;-42
2022/06/29 08:31:18;;;;;;;2.05;1.05;;;22.00;99.90;;;;;;4993440;28;20046;-42
2022/06/29 08:33:45;;;;;;;6.13;1.50;;;22.10;99.90;;;;;;4994946;28;20589;-43
2022/06/29 08:36:10;;;;;;;3.28;1.42;;;22.20;99.90;;;;;;4989879;28;20069;-43
2022/06/29 08:38:36;;;;;;;5.78;1.35;;;22.20;99.90;;;;;;4985344;28;20069;-42
2022/06/29 08:41:02;;;;;;;4.28;1.20;;;22.20;99.90;;;;;;4991160;28;20042;-42
2022/06/29 08:43:27;;;;;;;4.50;1.20;;;22.20;99.90;;;;;;4958443;28;20053;-42
2022/06/29 08:45:54;;;;;;;2.90;1.30;;;22.20;99.90;;;;;;4992495;28;20078;-42
2022/06/29 08:48:19;;;;;;;3.95;1.08;;;22.20;99.90;;;;;;4975390;28;20065;-42
2022/06/29 08:50:54;;;;;;;5.05;1.30;;;22.30;99.90;;;;;;4994839;28;20046;-42
2022/06/29 08:53:22;;;;;;;5.30;1.30;;;22.30;99.90;;;;;;4994684;28;20050;-42
2022/06/29 08:55:49;;;;;;;2.67;0.98;;;22.30;99.90;;;;;;4994711;28;20046;-42
2022/06/29 08:58:23;;;;;;;2.55;1.30;;;22.30;99.90;;;;;;4980279;28;20042;-42
2022/06/29 09:00:49;;;;;;;5.32;1.30;;;22.30;99.90;;;;;;4997254;28;20050;-42
2022/06/29 09:03:18;;;;;;;3.25;1.60;;;22.40;99.90;;;;;;4997641;28;20421;-42
2022/06/29 09:05:56;;;;;;;3.85;1.33;;;22.40;99.90;;;;;;4996288;28;20503;-42
2022/06/29 09:08:23;;;;;;;2.30;0.95;;;22.50;99.90;;;;;;4983176;28;20100;-42
2022/06/29 09:10:49;;;;;;;5.13;1.60;;;22.50;99.90;;;;;;4996043;28;20221;-42
2022/06/29 09:13:20;;;;;;;3.53;1.30;;;22.50;99.90;;;;;;4999475;28;20045;-43
2022/06/29 09:15:46;;;;;;;1.88;1.23;;;22.60;99.90;;;;;;4994679;28;20053;-43
2022/06/29 09:18:25;;;;;;;1.73;1.10;;;22.60;99.90;;;;;;4982192;28;20050;-43
2022/06/29 09:21:02;;;;;;;3.35;1.10;;;22.70;99.90;;;;;;4998839;28;20106;-43
2022/06/29 09:23:29;;;;;;;5.65;1.40;;;22.80;99.90;;;;;;4998918;28;20049;-43
2022/06/29 09:25:55;;;;;;;2.55;1.23;;;22.80;99.90;;;;;;4999079;28;20080;-43
2022/06/29 09:28:31;;;;;;;5.10;1.20;;;22.90;99.90;;;;;;4980842;28;20054;-43
2022/06/29 09:30:58;;;;;;;2.10;1.23;;;23.00;99.90;;;;;;4999388;28;20164;-43
2022/06/29 09:33:26;;;;;;;2.45;1.30;;;23.00;99.90;;;;;;4995216;28;20582;-43
2022/06/29 09:36:16;;;;;;;3.17;1.13;;;23.00;99.90;;;;;;5000150;28;20042;-43
2022/06/29 09:38:42;;;;;;;2.47;1.17;;;23.10;99.90;;;;;;4994450;28;20497;-43
2022/06/29 09:41:13;;;;;;;3.17;1.20;;;23.10;99.90;;;;;;4980056;28;20088;-43
2022/06/29 09:43:46;;;;;;;4.57;0.88;;;23.20;99.90;;;;;;4994681;28;20037;-43
2022/06/29 09:46:14;;;;;;;4.45;1.42;;;23.20;99.90;;;;;;4989932;28;20553;-43
2022/06/29 09:48:41;;;;;;;2.63;1.20;;;23.30;99.90;;;;;;4990178;28;20525;-43
2022/06/29 09:53:57;;;;;;;3.10;1.40;;;23.40;99.90;;;;;;4992600;28;20471;-43
2022/06/29 09:56:24;;;;;;;1.52;1.30;;;23.50;99.90;;;;;;4979126;28;20438;-43
2022/06/29 09:58:52;;;;;;;4.15;1.23;;;23.50;99.90;;;;;;4988885;28;20587;-43
2022/06/29 10:04:04;;;;;;;3.15;1.20;;;23.50;99.90;;;;;;4993360;28;20183;-43
2022/06/29 10:06:30;;;;;;;2.10;1.30;;;23.60;99.90;;;;;;4980780;28;20100;-43
2022/06/29 10:08:57;;;;;;;5.10;1.45;;;23.50;99.90;;;;;;4991216;28;20506;-43
2022/06/29 10:14:47;;;;;;;2.45;1.10;;;23.60;99.90;;;;;;4994732;28;20100;-42
2022/06/29 10:17:31;;;;;;;4.97;1.35;;;23.60;99.90;;;;;;4976194;28;20054;-42
2022/06/29 10:20:35;;;;;;;2.17;1.23;;;23.70;99.90;;;;;;4994163;28;20074;-42
2022/06/29 10:23:01;;;;;;;2.35;1.20;;;23.80;99.90;;;;;;4996203;28;20557;-42
2022/06/29 10:25:27;;;;;;;3.33;1.10;;;23.80;99.90;;;;;;4993284;28;20058;-42
2022/06/29 10:28:16;;;;;;;1.45;1.17;;;23.80;99.90;;;;;;4977895;28;20050;-42
2022/06/29 10:30:44;;;;;;;2.08;1.20;;;23.80;99.90;;;;;;4992091;28;20088;-42
2022/06/29 10:33:37;;;;;;;2.17;1.27;;;23.80;99.90;;;;;;4992346;28;20426;-42
2022/06/29 10:36:06;;;;;;;4.10;1.13;;;23.90;99.90;;;;;;4993829;28;20430;-42
2022/06/29 10:38:58;;;;;;;2.85;0.93;;;23.90;99.90;;;;;;4985736;28;20057;-42
2022/06/29 10:44:08;;;;;;;2.72;1.20;;;24.00;99.90;;;;;;4996468;28;20149;-43
2022/06/29 10:46:56;;;;;;;2.28;1.30;;;24.00;99.90;;;;;;4987157;28;20057;-43
2022/06/29 10:49:22;;;;;;;2.20;1.00;;;24.10;99.90;;;;;;4995923;28;20434;-42
2022/06/29 10:51:51;;;;;;;2.13;1.15;;;24.10;99.90;;;;;;4999664;28;20575;-43
2022/06/29 10:54:27;;;;;;;3.50;1.35;;;24.10;99.90;;;;;;4996782;28;20050;-42
2022/06/29 10:56:54;;;;;;;4.30;1.10;;;24.10;99.90;;;;;;4984958;28;20085;-42
2022/06/29 10:59:38;;;;;;;1.35;1.20;;;24.10;99.90;;;;;;5000050;28;20061;-42
2022/06/29 11:02:15;;;;;;;1.40;1.05;;;24.20;99.90;;;;;;4999349;28;20416;-43
2022/06/29 11:04:42;;;;;;;1.27;1.10;;;24.20;99.90;;;;;;4995940;28;20147;-42
2022/06/29 11:12:49;;;;;;;2.22;0.88;;;24.40;99.90;;;;;;4997935;28;20041;-42
2022/06/29 11:15:48;;;;;;;1.73;0.90;;;24.60;99.90;;;;;;5001585;28;20052;-42
2022/06/29 11:18:28;;;;;;;2.70;1.30;;;24.70;99.90;;;;;;4984864;28;20128;-42
2022/06/29 11:21:02;;;;;;;2.97;1.10;;;24.80;99.90;;;;;;5003072;28;20061;-42
2022/06/29 11:23:37;;;;;;;3.13;1.20;;;24.80;99.90;;;;;;4984594;28;20391;-42
2022/06/29 11:26:05;;;;;;;2.03;0.75;;;24.90;99.90;;;;;;5000476;28;20104;-42
2022/06/29 11:28:34;;;;;;;3.22;1.17;;;25.00;99.90;;;;;;4988833;28;20046;-42
2022/06/29 11:31:08;;;;;;;2.10;1.17;;;25.10;99.90;;;;;;5004269;28;20052;-42
2022/06/29 11:33:47;;;;;;;1.55;1.08;;;25.20;99.90;;;;;;4999431;28;20045;-42
2022/06/29 11:36:18;;;;;;;1.50;0.80;;;25.20;99.90;;;;;;4990172;28;20159;-43
2022/06/29 11:38:46;;;;;;;1.30;0.90;;;25.30;99.90;;;;;;4999139;28;20541;-42
2022/06/29 11:41:25;;;;;;;1.30;0.80;;;25.40;99.90;;;;;;5001870;28;20046;-43
2022/06/29 11:44:24;;;;;;;4.18;0.90;;;25.50;99.90;;;;;;4995518;28;20061;-42
2022/06/29 11:46:52;;;;;;;2.25;0.70;;;25.50;99.90;;;;;;4962212;28;20062;-43
2022/06/29 11:52:04;;;;;;;5.82;1.00;;;25.70;99.90;;;;;;4994748;28;20069;-43
2022/06/29 11:54:56;;;;;;;4.28;0.90;;;25.80;99.90;;;;;;4995210;28;20045;-42
2022/06/29 11:57:23;;;;;;;1.30;0.77;;;25.90;99.90;;;;;;4976898;28;20725;-42
2022/06/29 11:59:49;;;;;;;2.65;0.70;;;26.00;99.90;;;;;;4995253;28;20133;-43
2022/06/29 12:02:16;;;;;;;2.45;0.98;;;26.10;99.90;;;;;;4996352;28;20129;-43
2022/06/29 12:04:43;;;;;;;3.08;1.05;;;26.20;99.90;;;;;;4995383;28;20050;-43
2022/06/29 12:07:11;;;;;;;2.35;1.00;;;26.30;99.90;;;;;;4982122;28;20057;-43
2022/06/29 12:09:40;;;;;;;1.25;0.70;;;26.30;99.90;;;;;;4995968;28;20034;-43
2022/06/29 12:12:07;;;;;;;2.38;0.80;;;26.50;99.80;;;;;;4998393;28;20046;-43
2022/06/29 12:14:33;;;;;;;0.77;0.47;;;26.60;99.10;;;;;;4998989;28;20046;-43
2022/06/29 12:16:58;;;;;;;1.77;1.00;;;26.60;99.10;;;;;;4963811;28;20485;-42
2022/06/29 12:19:24;;;;;;;3.22;1.00;;;26.70;98.90;;;;;;4993396;28;20058;-42
2022/06/29 12:21:50;;;;;;;2.00;0.80;;;26.80;97.40;;;;;;4996678;28;20082;-42
2022/06/29 12:24:17;;;;;;;2.80;1.05;;;26.90;95.50;;;;;;4993219;28;20038;-42
2022/06/29 12:26:44;;;;;;;1.33;0.68;;;27.00;95.30;;;;;;4979138;28;20062;-42
2022/06/29 12:29:13;;;;;;;2.90;1.00;;;27.10;95.80;;;;;;4995719;28;20473;-42
2022/06/29 12:31:42;;;;;;;5.18;1.23;;;27.20;96.40;;;;;;4993696;28;20497;-42
2022/06/29 12:34:10;;;;;;;1.73;1.02;;;27.30;96.50;;;;;;4994495;28;20058;-42
2022/06/29 12:36:36;;;;;;;1.63;0.90;;;27.40;96.50;;;;;;4984544;28;20501;-43
2022/06/29 12:39:02;;;;;;;4.38;1.40;;;27.60;96.50;;;;;;4994719;28;20482;-42
2022/06/29 12:41:28;;;;;;;1.95;0.98;;;27.70;96.90;;;;;;4994717;28;20050;-42
2022/06/29 12:43:54;;;;;;;1.80;1.20;;;27.80;96.50;;;;;;4996679;28;20052;-42
2022/06/29 12:46:19;;;;;;;1.75;1.23;;;27.90;96.30;;;;;;4985740;28;20478;-42
2022/06/29 12:48:45;;;;;;;1.90;1.48;;;28.00;96.30;;;;;;4991619;28;20105;-42
2022/06/29 12:51:11;;;;;;;2.38;1.60;;;28.10;96.20;;;;;;4996509;28;20046;-42
2022/06/29 12:53:37;;;;;;;2.13;1.50;;;28.10;96.40;;;;;;4996716;28;20417;-43
2022/06/29 12:56:03;;;;;;;3.50;1.48;;;28.20;96.60;;;;;;4999688;28;20046;-43
2022/06/29 12:58:29;;;;;;;4.82;1.50;;;28.40;96.90;;;;;;4983432;28;20061;-43
2022/06/29 13:00:55;;;;;;;2.85;1.90;;;28.40;97.00;;;;;;4999998;28;20054;-43
2022/06/29 13:03:20;;;;;;;3.80;1.65;;;28.50;96.60;;;;;;4996420;28;20078;-43
2022/06/29 13:05:46;;;;;;;2.88;1.50;;;28.60;96.20;;;;;;4997584;28;20046;-43
2022/06/29 13:08:13;;;;;;;2.45;1.50;;;28.70;95.00;;;;;;4985685;28;20104;-43
2022/06/29 13:10:39;;;;;;;3.20;1.30;;;28.80;94.80;;;;;;4999692;28;20421;-43